Mare Island — WDC2198 — position and weather

sailwx.info

Track history (hours):
 
Tides and Currents Weather Stations Pressure Air Temp Water Temp Dewpoint Dewpoint Depression Visibility Wind Speed Wind Dir Waves Ship Positions

Mare Island

Owner: San Francisco Bay Area Water Emergency Transportation Authority, Vallejo, CA. More information available from US FCC via Universal Licensing System and Coast Guard Vessel Documentation Center.

Last reported at 2018-Jul-15 20:28 UTC. Time now 2018-Jul-15 20:36 UTC.
Position N 38°05' W 122°15'.

Length 42 m; draft 3 m.

Type: Passenger vessel. MMSI: 366989380.

Date/timePositionNaut miles runAvg speedWind from/ knotsBaromVisibWave heightAir tempDewpointWater temp
2018-Jul-15 20:28N 38°05' W 122°15'1430.7
2018-Jul-15 20:01N 37°54' W 122°25'611.9
2018-Jul-15 19:30N 37°48' W 122°24'1122.7
2018-Jul-15 19:00N 37°59' W 122°26'1121.1
2018-Jul-15 18:31N 38°06' W 122°16'0 0.1
2018-Jul-15 18:00N 38°06' W 122°16'816.2
2018-Jul-15 17:30N 38°01' W 122°23'1325.7
2018-Jul-15 17:00N 37°48' W 122°24'1 2.4
2018-Jul-15 16:31N 37°49' W 122°25'1122.8
2018-Jul-15 16:00N 37°60' W 122°24'9 4.6
2018-Jul-15 14:04N 38°06' W 122°16'0 0.0
2018-Jul-15 12:49N 38°06' W 122°16'0 0.0
2018-Jul-15 12:25N 38°06' W 122°16'0 0.0
2018-Jul-15 12:00N 38°06' W 122°16'0 0.0
2018-Jul-15 10:45N 38°06' W 122°16'0 0.0
2018-Jul-15 10:14N 38°06' W 122°16'0 0.0
2018-Jul-15 09:55N 38°06' W 122°16'0 0.0
2018-Jul-15 06:52N 38°06' W 122°16'0 0.1
2018-Jul-15 05:21N 38°06' W 122°16'1 2.3
2018-Jul-15 05:00N 38°05' W 122°15'1224.3
2018-Jul-15 04:30N 37°56' W 122°26'917.5
2018-Jul-15 04:01N 37°48' W 122°24'1 2.6
2018-Jul-15 03:30N 37°49' W 122°25'1121.6
2018-Jul-15 03:01N 37°59' W 122°25'1019.4
2018-Jul-15 02:30N 38°06' W 122°16'0 0.0
2018-Jul-15 01:59N 38°06' W 122°16'1 2.2
2018-Jul-15 01:25N 38°05' W 122°15'1025.5
2018-Jul-15 01:01N 37°59' W 122°25'1121.6
2018-Jul-15 00:30N 37°48' W 122°24'1 2.4
2018-Jul-15 00:01N 37°49' W 122°25'1224.3
2018-Jul-14 23:30N 38°01' W 122°24'811.3
2018-Jul-14 22:47N 38°06' W 122°16'0 0.2
2018-Jul-14 21:04N 38°06' W 122°16'0 1.1
2018-Jul-14 20:44N 38°06' W 122°16'311.0
2018-Jul-14 20:28N 38°03' W 122°17'1429.3
2018-Jul-14 20:01N 37°51' W 122°24'3 6.1
2018-Jul-14 19:31N 37°48' W 122°23'1326.7
2018-Jul-14 19:01N 38°01' W 122°22'711.7
2018-Jul-14 18:25N 38°06' W 122°16'0 0.0
2018-Jul-14 17:57N 38°06' W 122°16'716.3
2018-Jul-14 17:30N 38°01' W 122°23'1326.7
2018-Jul-14 17:00N 37°48' W 122°24'1 2.4
2018-Jul-14 16:30N 37°49' W 122°25'1122.6
2018-Jul-14 16:00N 37°60' W 122°25'913.9
2018-Jul-14 15:20N 38°06' W 122°16'0 0.5
2018-Jul-14 14:42N 38°06' W 122°16'0 0.0
2018-Jul-14 11:54N 38°06' W 122°16'0 0.0
2018-Jul-14 11:24N 38°06' W 122°16'0 0.0
2018-Jul-14 11:00N 38°06' W 122°16'0 0.0
2018-Jul-14 09:30N 38°06' W 122°16'0 0.0
2018-Jul-14 09:00N 38°06' W 122°16'0 0.0
2018-Jul-14 08:24N 38°06' W 122°16'0 0.0
2018-Jul-14 08:00N 38°06' W 122°16'0 0.0
2018-Jul-14 06:36N 38°06' W 122°16'0 0.0
2018-Jul-14 06:30N 38°06' W 122°16'0 0.0
2018-Jul-14 05:54N 38°06' W 122°16'0 0.0
2018-Jul-14 04:42N 38°06' W 122°16'0 0.0
2018-Jul-14 04:30N 38°06' W 122°16'0 0.0
2018-Jul-14 04:00N 38°06' W 122°16'0 0.0
2018-Jul-14 03:30N 38°06' W 122°16'0 0.0
2018-Jul-14 02:54N 38°06' W 122°16'0 0.0
2018-Jul-14 02:30N 38°06' W 122°16'0 0.7
2018-Jul-14 01:59N 38°06' W 122°16'612.4
2018-Jul-14 01:30N 38°02' W 122°21'1428.2
2018-Jul-14 01:01N 37°48' W 122°24'3 5.6
2018-Jul-14 00:30N 37°50' W 122°25'1529.6
2018-Jul-14 00:00N 38°04' W 122°16'2 4.6
2018-Jul-13 23:30N 38°06' W 122°16'611.8
2018-Jul-13 23:00N 38°02' W 122°21'1428.1
2018-Jul-13 22:30N 37°48' W 122°24'1 2.4
2018-Jul-13 22:00N 37°49' W 122°25'1121.6
2018-Jul-13 21:30N 37°59' W 122°25'1015.5
2018-Jul-13 20:52N 38°06' W 122°16'0 0.2
2018-Jul-13 19:23N 38°06' W 122°16'0 0.8
2018-Jul-13 19:00N 38°06' W 122°16'714.3
2018-Jul-13 18:30N 38°01' W 122°22'1325.4
2018-Jul-13 18:00N 37°49' W 122°25'1 2.4
2018-Jul-13 17:30N 37°48' W 122°24'1224.5
2018-Jul-13 17:01N 38°00' W 122°24'910.9
2018-Jul-13 16:10N 38°06' W 122°16'1 8.4
2018-Jul-13 16:00N 38°05' W 122°15'1327.5
2018-Jul-13 15:31N 37°54' W 122°25'612.7
2018-Jul-13 15:00N 37°48' W 122°24'1122.9
2018-Jul-13 14:31N 37°59' W 122°25'1010.1
2018-Jul-13 13:30N 38°06' W 122°16'0 0.0
2018-Jul-13 12:55N 38°06' W 122°16'0 0.0
2018-Jul-13 12:19N 38°06' W 122°16'0 0.0
2018-Jul-13 11:55N 38°06' W 122°16'0 0.0
2018-Jul-13 11:25N 38°06' W 122°16'0 0.0
2018-Jul-13 10:55N 38°06' W 122°16'0 0.0
2018-Jul-13 10:25N 38°06' W 122°16'0 0.0
2018-Jul-13 09:55N 38°06' W 122°16'0 0.0
2018-Jul-13 09:25N 38°06' W 122°16'0 0.0
2018-Jul-13 08:55N 38°06' W 122°16'0 0.0
2018-Jul-13 08:25N 38°06' W 122°16'0 0.0
2018-Jul-13 07:55N 38°06' W 122°16'0 0.0
2018-Jul-13 07:25N 38°06' W 122°16'0 0.0
2018-Jul-13 06:37N 38°06' W 122°16'0 0.0
2018-Jul-13 06:25N 38°06' W 122°16'0 0.0
2018-Jul-13 05:55N 38°06' W 122°16'0 0.0
2018-Jul-13 05:25N 38°06' W 122°16'0 0.0
2018-Jul-13 04:55N 38°06' W 122°16'0 0.0
2018-Jul-13 04:25N 38°06' W 122°16'0 0.0
2018-Jul-13 03:55N 38°06' W 122°16'0 0.0
2018-Jul-13 03:25N 38°06' W 122°16'0 0.0
2018-Jul-13 02:55N 38°06' W 122°16'0 0.0
2018-Jul-13 02:25N 38°06' W 122°16'0 0.7
2018-Jul-13 02:00N 38°06' W 122°16'714.2
2018-Jul-13 01:31N 38°01' W 122°22'1326.5
2018-Jul-13 01:00N 37°48' W 122°24'1 2.0
2018-Jul-13 00:31N 37°49' W 122°24'1530.2
2018-Jul-13 00:00N 38°03' W 122°18'3 5.3
2018-Jul-12 23:23N 38°06' W 122°16'615.9
2018-Jul-12 23:00N 38°01' W 122°21'1427.7
2018-Jul-12 22:30N 37°48' W 122°24'1 2.4
2018-Jul-12 22:00N 37°49' W 122°25'1325.2
2018-Jul-12 21:31N 38°01' W 122°23'813.6
2018-Jul-12 20:57N 38°06' W 122°16'0 0.1
2018-Jul-12 19:18N 38°06' W 122°16'0 0.3
2018-Jul-12 18:58N 38°06' W 122°16'4 9.4
2018-Jul-12 18:30N 38°03' W 122°19'1529.4
2018-Jul-12 18:00N 37°49' W 122°25'1 2.4
2018-Jul-12 17:30N 37°48' W 122°24'1225.2
2018-Jul-12 17:01N 38°00' W 122°24'917.5
2018-Jul-12 16:30N 38°06' W 122°16'1 2.7
2018-Jul-12 15:59N 38°05' W 122°15'1328.1
2018-Jul-12 15:31N 37°54' W 122°25'613.0
2018-Jul-12 15:00N 37°48' W 122°24'1224.3
2018-Jul-12 14:30N 37°60' W 122°24'913.3
2018-Jul-12 13:49N 38°06' W 122°16'0 0.0
2018-Jul-12 06:38N 38°06' W 122°16'0 0.0
2018-Jul-12 05:44N 38°06' W 122°16'0 0.0
2018-Jul-12 05:26N 38°06' W 122°16'0 0.0
2018-Jul-12 04:44N 38°06' W 122°16'0 0.0
2018-Jul-12 04:20N 38°06' W 122°16'0 0.0
2018-Jul-12 03:56N 38°06' W 122°16'0 0.0
2018-Jul-12 03:30N 38°06' W 122°16'2 3.0
2018-Jul-12 03:00N 38°05' W 122°15'1428.0
2018-Jul-12 02:30N 37°54' W 122°25'612.0
2018-Jul-12 02:00N 37°48' W 122°23'2 4.8
2018-Jul-12 01:30N 37°50' W 122°25'1529.7
2018-Jul-12 01:00N 38°04' W 122°16'2 4.7
2018-Jul-12 00:30N 38°06' W 122°16'2 4.0
2018-Jul-12 00:00N 38°04' W 122°15'1428.3
2018-Jul-11 23:30N 37°52' W 122°24'4 8.0
2018-Jul-11 23:00N 37°48' W 122°23'1529.6
2018-Jul-11 22:30N 38°03' W 122°19'4 7.8
2018-Jul-11 21:57N 38°06' W 122°16'0 0.0
2018-Jul-11 19:04N 38°06' W 122°16'0 0.1
2018-Jul-11 18:50N 38°06' W 122°16'617.4
2018-Jul-11 18:29N 38°02' W 122°21'1327.6
2018-Jul-11 18:00N 37°49' W 122°25'1 2.2
2018-Jul-11 17:27N 37°48' W 122°24'1324.1
2018-Jul-11 16:54N 38°01' W 122°23'716.9
2018-Jul-11 16:28N 38°06' W 122°16'1 2.6
2018-Jul-11 15:56N 38°05' W 122°15'1330.2
2018-Jul-11 15:31N 37°55' W 122°25'714.8
2018-Jul-11 15:00N 37°48' W 122°24'1222.4
2018-Jul-11 14:29N 37°59' W 122°25'10 0.8
2018-Jul-11 02:11N 38°06' W 122°16'0 1.4
2018-Jul-11 01:55N 38°06' W 122°16'716.3
2018-Jul-11 01:30N 38°01' W 122°22'1326.9
2018-Jul-11 01:00N 37°48' W 122°24'3 5.8
2018-Jul-11 00:31N 37°51' W 122°25'1529.6
2018-Jul-11 00:00N 38°04' W 122°16'2 3.7
2018-Jul-10 23:25N 38°06' W 122°16'614.3
2018-Jul-10 23:00N 38°02' W 122°21'1427.8
2018-Jul-10 22:30N 37°48' W 122°24'1 2.5
2018-Jul-10 22:00N 37°49' W 122°25'1122.8
2018-Jul-10 21:30N 37°60' W 122°24'915.2
2018-Jul-10 20:54N 38°06' W 122°16'0 0.1
2018-Jul-10 19:06N 38°06' W 122°16'0 0.4
2018-Jul-10 18:49N 38°06' W 122°16'413.8
2018-Jul-10 18:30N 38°03' W 122°19'1529.3
2018-Jul-10 18:00N 37°49' W 122°25'1 2.4
2018-Jul-10 17:30N 37°48' W 122°24'1224.1
2018-Jul-10 17:00N 37°60' W 122°24'918.3
2018-Jul-10 16:30N 38°06' W 122°16'0 0.8
2018-Jul-10 16:00N 38°06' W 122°16'1326.4
2018-Jul-10 15:31N 37°55' W 122°26'815.2
2018-Jul-10 15:00N 37°48' W 122°24'1122.7
2018-Jul-10 14:30N 37°59' W 122°25'1020.1
2018-Jul-10 14:00N 38°06' W 122°16'0 0.0
2018-Jul-10 02:08N 38°06' W 122°16'0 1.3
2018-Jul-10 01:51N 38°06' W 122°16'617.0
2018-Jul-10 01:30N 38°02' W 122°21'1427.9
2018-Jul-10 01:00N 37°48' W 122°24'3 6.1
2018-Jul-10 00:31N 37°51' W 122°25'1428.4
2018-Jul-10 00:01N 38°04' W 122°17'3 4.8
2018-Jul-09 23:28N 38°06' W 122°16'816.8
2018-Jul-09 23:00N 38°01' W 122°23'1325.9
2018-Jul-09 22:30N 37°48' W 122°24'1 2.4
2018-Jul-09 22:00N 37°49' W 122°25'1120.6
2018-Jul-09 21:30N 37°59' W 122°25'1020.9
2018-Jul-09 21:00N 38°06' W 122°16'0 0.0
2018-Jul-09 19:04N 38°06' W 122°16'0 0.2
2018-Jul-09 18:50N 38°06' W 122°16'616.5
2018-Jul-09 18:30N 38°02' W 122°21'1427.4
2018-Jul-09 18:00N 37°49' W 122°25'1 2.4
2018-Jul-09 17:29N 37°48' W 122°24'1326.5
2018-Jul-09 17:01N 38°00' W 122°24'816.7
2018-Jul-09 16:31N 38°06' W 122°16'1 1.3
2018-Jul-09 15:59N 38°05' W 122°15'1327.3
2018-Jul-09 15:30N 37°55' W 122°25'714.6
2018-Jul-09 15:00N 37°48' W 122°24'1224.0
2018-Jul-09 14:31N 37°60' W 122°25'918.7
2018-Jul-09 14:00N 38°06' W 122°16'0 0.0
2018-Jul-09 05:14N 38°06' W 122°16'0 1.5
2018-Jul-09 04:58N 38°06' W 122°16'817.3
2018-Jul-09 04:30N 38°01' W 122°23'1326.0
2018-Jul-09 04:01N 37°48' W 122°24'2 3.3
2018-Jul-09 03:31N 37°49' W 122°25'1325.7
2018-Jul-09 03:00N 38°02' W 122°22'612.7
2018-Jul-09 02:30N 38°06' W 122°16'0 0.0
2018-Jul-09 02:00N 38°06' W 122°16'0 0.3
2018-Jul-09 01:29N 38°06' W 122°16'918.5
2018-Jul-09 01:01N 38°00' W 122°24'1224.4
2018-Jul-09 00:30N 37°48' W 122°24'1 2.4
2018-Jul-09 00:01N 37°49' W 122°25'1020.3
2018-Jul-08 23:30N 37°59' W 122°26'1121.7
2018-Jul-08 23:00N 38°06' W 122°16'0 0.2
2018-Jul-08 21:08N 38°06' W 122°16'0 1.8
2018-Jul-08 20:59N 38°06' W 122°16'1 2.9
2018-Jul-08 20:30N 38°05' W 122°15'1428.6
2018-Jul-08 20:00N 37°53' W 122°25'510.9
2018-Jul-08 19:30N 37°48' W 122°24'1326.3
2018-Jul-08 19:00N 38°01' W 122°23'814.9
2018-Jul-08 18:30N 38°06' W 122°16'1 1.4
2018-Jul-08 17:47N 38°05' W 122°15'724.4
2018-Jul-08 17:30N 38°01' W 122°22'1327.0
2018-Jul-08 17:00N 37°48' W 122°24'1 2.4
2018-Jul-08 16:30N 37°49' W 122°25'1223.1
2018-Jul-08 16:00N 38°00' W 122°25'912.2
2018-Jul-08 15:16N 38°06' W 122°16'0 0.0
2018-Jul-08 05:17N 38°06' W 122°16'0 1.4
2018-Jul-08 05:00N 38°06' W 122°16'1019.7
2018-Jul-08 04:30N 37°59' W 122°25'1223.3
2018-Jul-08 04:00N 37°48' W 122°24'2 3.4
2018-Jul-08 03:30N 37°49' W 122°25'1224.3
2018-Jul-08 03:00N 38°01' W 122°22'711.3
2018-Jul-08 02:22N 38°06' W 122°16'0 0.0
2018-Jul-08 01:58N 38°06' W 122°16'0 0.0
2018-Jul-08 01:28N 38°06' W 122°16'918.6
2018-Jul-08 01:00N 38°00' W 122°24'1225.3
2018-Jul-08 00:30N 37°48' W 122°24'1 2.2
2018-Jul-07 23:58N 37°49' W 122°25'1122.6
2018-Jul-07 23:30N 37°59' W 122°25'1020.2
2018-Jul-07 22:59N 38°06' W 122°16'0 0.6
2018-Jul-07 22:30N 38°06' W 122°16'0 0.1
2018-Jul-07 20:59N 38°06' W 122°16'2 3.6
2018-Jul-07 20:30N 38°05' W 122°15'1427.9
2018-Jul-07 20:00N 37°53' W 122°25'6 9.4
2018-Jul-07 19:25N 37°48' W 122°24'1023.4
2018-Jul-07 18:59N 37°58' W 122°27'1224.2
2018-Jul-07 18:30N 38°06' W 122°16'0 0.8
2018-Jul-07 17:59N 38°06' W 122°16'612.1
2018-Jul-07 17:30N 38°02' W 122°21'1424.9
2018-Jul-07 16:56N 37°48' W 122°24'1 2.8
2018-Jul-07 16:30N 37°49' W 122°25'1324.9
2018-Jul-07 15:58N 38°02' W 122°22'613.2
2018-Jul-07 15:30N 38°06' W 122°16'0 0.5
2018-Jul-07 14:57N 38°06' W 122°16'0 0.0
2018-Jul-07 14:27N 38°06' W 122°16'0 0.0
2018-Jul-07 13:57N 38°06' W 122°16'0 0.0
2018-Jul-07 13:27N 38°06' W 122°16'0 0.0
2018-Jul-07 12:51N 38°06' W 122°16'0 0.0
2018-Jul-07 12:27N 38°06' W 122°16'0 0.0
2018-Jul-07 11:51N 38°06' W 122°16'0 0.0
2018-Jul-07 11:21N 38°06' W 122°16'0 0.0
2018-Jul-07 10:57N 38°06' W 122°16'0 0.0
2018-Jul-07 08:39N 38°06' W 122°16'0 0.0
2018-Jul-07 08:15N 38°06' W 122°16'0 0.0
2018-Jul-07 07:51N 38°06' W 122°16'0 0.0
2018-Jul-07 06:39N 38°06' W 122°16'0 0.0
2018-Jul-07 06:21N 38°06' W 122°16'0 0.0
2018-Jul-07 05:57N 38°06' W 122°16'0 0.0
2018-Jul-07 05:27N 38°06' W 122°16'0 0.0
2018-Jul-07 04:57N 38°06' W 122°16'0 0.0
2018-Jul-07 04:27N 38°06' W 122°16'0 0.0
2018-Jul-07 03:57N 38°06' W 122°16'0 0.0
2018-Jul-07 03:27N 38°06' W 122°16'0 0.0
2018-Jul-07 02:57N 38°06' W 122°16'0 0.0
2018-Jul-07 02:27N 38°06' W 122°16'0 0.6
2018-Jul-07 01:58N 38°06' W 122°16'612.4
2018-Jul-07 01:31N 38°02' W 122°20'1427.4
2018-Jul-07 01:00N 37°48' W 122°24'510.8
2018-Jul-07 00:30N 37°53' W 122°26'1429.0
2018-Jul-07 00:00N 38°04' W 122°15'2 3.4
2018-Jul-06 23:30N 38°06' W 122°16'612.6
2018-Jul-06 23:00N 38°01' W 122°21'1427.4
2018-Jul-06 22:31N 37°48' W 122°24'1 2.4
2018-Jul-06 22:00N 37°49' W 122°25'1224.9
2018-Jul-06 21:30N 38°01' W 122°23'815.1
2018-Jul-06 21:00N 38°06' W 122°16'0 0.2
2018-Jul-06 19:13N 38°06' W 122°16'0 1.2
2018-Jul-06 18:53N 38°06' W 122°16'615.6
2018-Jul-06 18:30N 38°02' W 122°21'1326.7
2018-Jul-06 18:01N 37°49' W 122°25'1 2.4
2018-Jul-06 17:30N 37°48' W 122°24'1121.4
2018-Jul-06 17:00N 37°59' W 122°26'1121.8
2018-Jul-06 16:30N 38°06' W 122°16'1 1.9
2018-Jul-06 15:59N 38°05' W 122°15'1326.9
2018-Jul-06 15:30N 37°55' W 122°26'815.0
2018-Jul-06 15:00N 37°48' W 122°24'1223.6
2018-Jul-06 14:30N 37°60' W 122°25'918.9
2018-Jul-06 14:00N 38°06' W 122°16'0 0.0
2018-Jul-06 06:36N 38°06' W 122°16'0 2.8
2018-Jul-06 06:30N 38°06' W 122°16'2 3.7
2018-Jul-06 06:00N 38°04' W 122°15'1428.1
2018-Jul-06 05:31N 37°53' W 122°25'612.3
2018-Jul-06 05:00N 37°47' W 122°23'917.9
2018-Jul-06 04:30N 37°55' W 122°27'1427.1
2018-Jul-06 04:00N 38°06' W 122°15'1 1.3
2018-Jul-06 03:27N 38°06' W 122°16'1 2.3
2018-Jul-06 03:01N 38°05' W 122°15'1427.1
2018-Jul-06 02:31N 37°54' W 122°25'611.7
2018-Jul-06 02:01N 37°49' W 122°24'4 7.1
2018-Jul-06 01:31N 37°52' W 122°25'1428.1
2018-Jul-06 01:01N 38°04' W 122°16'2 3.5
2018-Jul-06 00:25N 38°06' W 122°16'614.5
2018-Jul-06 00:00N 38°02' W 122°21'1428.2
2018-Jul-05 23:30N 37°48' W 122°24'1 2.5
2018-Jul-05 23:00N 37°49' W 122°23'1428.3
2018-Jul-05 22:30N 38°03' W 122°19'4 7.8
2018-Jul-05 22:00N 38°06' W 122°16'  
Track history (hours):
 
Tides and Currents Weather Stations Pressure Air Temp Water Temp Dewpoint Dewpoint Depression Visibility Wind Speed Wind Dir Waves Ship Positions

Mare Island

Owner: San Francisco Bay Area Water Emergency Transportation Authority, Vallejo, CA. More information available from US FCC via Universal Licensing System and Coast Guard Vessel Documentation Center.

Last reported at 2018-Jul-15 20:28 UTC. Time now 2018-Jul-15 20:36 UTC.
Position N 38°05' W 122°15'.

Length 42 m; draft 3 m.

Type: Passenger vessel. MMSI: 366989380.

Date/timePositionNaut miles runAvg speedWind from/ knotsBaromVisibWave heightAir tempDewpointWater temp
2018-Jul-15 20:28N 38°05' W 122°15'1430.7
2018-Jul-15 20:01N 37°54' W 122°25'611.9
2018-Jul-15 19:30N 37°48' W 122°24'1122.7
2018-Jul-15 19:00N 37°59' W 122°26'1121.1
2018-Jul-15 18:31N 38°06' W 122°16'0 0.1
2018-Jul-15 18:00N 38°06' W 122°16'816.2
2018-Jul-15 17:30N 38°01' W 122°23'1325.7
2018-Jul-15 17:00N 37°48' W 122°24'1 2.4
2018-Jul-15 16:31N 37°49' W 122°25'1122.8
2018-Jul-15 16:00N 37°60' W 122°24'9 4.6
2018-Jul-15 14:04N 38°06' W 122°16'0 0.0
2018-Jul-15 12:49N 38°06' W 122°16'0 0.0
2018-Jul-15 12:25N 38°06' W 122°16'0 0.0
2018-Jul-15 12:00N 38°06' W 122°16'0 0.0
2018-Jul-15 10:45N 38°06' W 122°16'0 0.0
2018-Jul-15 10:14N 38°06' W 122°16'0 0.0
2018-Jul-15 09:55N 38°06' W 122°16'0 0.0
2018-Jul-15 06:52N 38°06' W 122°16'0 0.1
2018-Jul-15 05:21N 38°06' W 122°16'1 2.3
2018-Jul-15 05:00N 38°05' W 122°15'1224.3
2018-Jul-15 04:30N 37°56' W 122°26'917.5
2018-Jul-15 04:01N 37°48' W 122°24'1 2.6
2018-Jul-15 03:30N 37°49' W 122°25'1121.6
2018-Jul-15 03:01N 37°59' W 122°25'1019.4
2018-Jul-15 02:30N 38°06' W 122°16'0 0.0
2018-Jul-15 01:59N 38°06' W 122°16'1 2.2
2018-Jul-15 01:25N 38°05' W 122°15'1025.5
2018-Jul-15 01:01N 37°59' W 122°25'1121.6
2018-Jul-15 00:30N 37°48' W 122°24'1 2.4
2018-Jul-15 00:01N 37°49' W 122°25'1224.3
2018-Jul-14 23:30N 38°01' W 122°24'811.3
2018-Jul-14 22:47N 38°06' W 122°16'0 0.2
2018-Jul-14 21:04N 38°06' W 122°16'0 1.1
2018-Jul-14 20:44N 38°06' W 122°16'311.0
2018-Jul-14 20:28N 38°03' W 122°17'1429.3
2018-Jul-14 20:01N 37°51' W 122°24'3 6.1
2018-Jul-14 19:31N 37°48' W 122°23'1326.7
2018-Jul-14 19:01N 38°01' W 122°22'711.7
2018-Jul-14 18:25N 38°06' W 122°16'0 0.0
2018-Jul-14 17:57N 38°06' W 122°16'716.3
2018-Jul-14 17:30N 38°01' W 122°23'1326.7
2018-Jul-14 17:00N 37°48' W 122°24'1 2.4
2018-Jul-14 16:30N 37°49' W 122°25'1122.6
2018-Jul-14 16:00N 37°60' W 122°25'913.9
2018-Jul-14 15:20N 38°06' W 122°16'0 0.5
2018-Jul-14 14:42N 38°06' W 122°16'0 0.0
2018-Jul-14 11:54N 38°06' W 122°16'0 0.0
2018-Jul-14 11:24N 38°06' W 122°16'0 0.0
2018-Jul-14 11:00N 38°06' W 122°16'0 0.0
2018-Jul-14 09:30N 38°06' W 122°16'0 0.0
2018-Jul-14 09:00N 38°06' W 122°16'0 0.0
2018-Jul-14 08:24N 38°06' W 122°16'0 0.0
2018-Jul-14 08:00N 38°06' W 122°16'0 0.0
2018-Jul-14 06:36N 38°06' W 122°16'0 0.0
2018-Jul-14 06:30N 38°06' W 122°16'0 0.0
2018-Jul-14 05:54N 38°06' W 122°16'0 0.0
2018-Jul-14 04:42N 38°06' W 122°16'0 0.0
2018-Jul-14 04:30N 38°06' W 122°16'0 0.0
2018-Jul-14 04:00N 38°06' W 122°16'0 0.0
2018-Jul-14 03:30N 38°06' W 122°16'0 0.0
2018-Jul-14 02:54N 38°06' W 122°16'0 0.0
2018-Jul-14 02:30N 38°06' W 122°16'0 0.7
2018-Jul-14 01:59N 38°06' W 122°16'612.4
2018-Jul-14 01:30N 38°02' W 122°21'1428.2
2018-Jul-14 01:01N 37°48' W 122°24'3 5.6
2018-Jul-14 00:30N 37°50' W 122°25'1529.6
2018-Jul-14 00:00N 38°04' W 122°16'2 4.6
2018-Jul-13 23:30N 38°06' W 122°16'611.8
2018-Jul-13 23:00N 38°02' W 122°21'1428.1
2018-Jul-13 22:30N 37°48' W 122°24'1 2.4
2018-Jul-13 22:00N 37°49' W 122°25'1121.6
2018-Jul-13 21:30N 37°59' W 122°25'1015.5
2018-Jul-13 20:52N 38°06' W 122°16'0 0.2
2018-Jul-13 19:23N 38°06' W 122°16'0 0.8
2018-Jul-13 19:00N 38°06' W 122°16'714.3
2018-Jul-13 18:30N 38°01' W 122°22'1325.4
2018-Jul-13 18:00N 37°49' W 122°25'1 2.4
2018-Jul-13 17:30N 37°48' W 122°24'1224.5
2018-Jul-13 17:01N 38°00' W 122°24'910.9
2018-Jul-13 16:10N 38°06' W 122°16'1 8.4
2018-Jul-13 16:00N 38°05' W 122°15'1327.5
2018-Jul-13 15:31N 37°54' W 122°25'612.7
2018-Jul-13 15:00N 37°48' W 122°24'1122.9
2018-Jul-13 14:31N 37°59' W 122°25'1010.1
2018-Jul-13 13:30N 38°06' W 122°16'0 0.0
2018-Jul-13 12:55N 38°06' W 122°16'0 0.0
2018-Jul-13 12:19N 38°06' W 122°16'0 0.0
2018-Jul-13 11:55N 38°06' W 122°16'0 0.0
2018-Jul-13 11:25N 38°06' W 122°16'0 0.0
2018-Jul-13 10:55N 38°06' W 122°16'0 0.0
2018-Jul-13 10:25N 38°06' W 122°16'0 0.0
2018-Jul-13 09:55N 38°06' W 122°16'0 0.0
2018-Jul-13 09:25N 38°06' W 122°16'0 0.0
2018-Jul-13 08:55N 38°06' W 122°16'0 0.0
2018-Jul-13 08:25N 38°06' W 122°16'0 0.0
2018-Jul-13 07:55N 38°06' W 122°16'0 0.0
2018-Jul-13 07:25N 38°06' W 122°16'0 0.0
2018-Jul-13 06:37N 38°06' W 122°16'0 0.0
2018-Jul-13 06:25N 38°06' W 122°16'0 0.0
2018-Jul-13 05:55N 38°06' W 122°16'0 0.0
2018-Jul-13 05:25N 38°06' W 122°16'0 0.0
2018-Jul-13 04:55N 38°06' W 122°16'0 0.0
2018-Jul-13 04:25N 38°06' W 122°16'0 0.0
2018-Jul-13 03:55N 38°06' W 122°16'0 0.0
2018-Jul-13 03:25N 38°06' W 122°16'0 0.0
2018-Jul-13 02:55N 38°06' W 122°16'0 0.0
2018-Jul-13 02:25N 38°06' W 122°16'0 0.7
2018-Jul-13 02:00N 38°06' W 122°16'714.2
2018-Jul-13 01:31N 38°01' W 122°22'1326.5
2018-Jul-13 01:00N 37°48' W 122°24'1 2.0
2018-Jul-13 00:31N 37°49' W 122°24'1530.2
2018-Jul-13 00:00N 38°03' W 122°18'3 5.3
2018-Jul-12 23:23N 38°06' W 122°16'615.9
2018-Jul-12 23:00N 38°01' W 122°21'1427.7
2018-Jul-12 22:30N 37°48' W 122°24'1 2.4
2018-Jul-12 22:00N 37°49' W 122°25'1325.2
2018-Jul-12 21:31N 38°01' W 122°23'813.6
2018-Jul-12 20:57N 38°06' W 122°16'0 0.1
2018-Jul-12 19:18N 38°06' W 122°16'0 0.3
2018-Jul-12 18:58N 38°06' W 122°16'4 9.4
2018-Jul-12 18:30N 38°03' W 122°19'1529.4
2018-Jul-12 18:00N 37°49' W 122°25'1 2.4
2018-Jul-12 17:30N 37°48' W 122°24'1225.2
2018-Jul-12 17:01N 38°00' W 122°24'917.5
2018-Jul-12 16:30N 38°06' W 122°16'1 2.7
2018-Jul-12 15:59N 38°05' W 122°15'1328.1
2018-Jul-12 15:31N 37°54' W 122°25'613.0
2018-Jul-12 15:00N 37°48' W 122°24'1224.3
2018-Jul-12 14:30N 37°60' W 122°24'913.3
2018-Jul-12 13:49N 38°06' W 122°16'0 0.0
2018-Jul-12 06:38N 38°06' W 122°16'0 0.0
2018-Jul-12 05:44N 38°06' W 122°16'0 0.0
2018-Jul-12 05:26N 38°06' W 122°16'0 0.0
2018-Jul-12 04:44N 38°06' W 122°16'0 0.0
2018-Jul-12 04:20N 38°06' W 122°16'0 0.0
2018-Jul-12 03:56N 38°06' W 122°16'0 0.0
2018-Jul-12 03:30N 38°06' W 122°16'2 3.0
2018-Jul-12 03:00N 38°05' W 122°15'1428.0
2018-Jul-12 02:30N 37°54' W 122°25'612.0
2018-Jul-12 02:00N 37°48' W 122°23'2 4.8
2018-Jul-12 01:30N 37°50' W 122°25'1529.7
2018-Jul-12 01:00N 38°04' W 122°16'2 4.7
2018-Jul-12 00:30N 38°06' W 122°16'2 4.0
2018-Jul-12 00:00N 38°04' W 122°15'1428.3
2018-Jul-11 23:30N 37°52' W 122°24'4 8.0
2018-Jul-11 23:00N 37°48' W 122°23'1529.6
2018-Jul-11 22:30N 38°03' W 122°19'4 7.8
2018-Jul-11 21:57N 38°06' W 122°16'0 0.0
2018-Jul-11 19:04N 38°06' W 122°16'0 0.1
2018-Jul-11 18:50N 38°06' W 122°16'617.4
2018-Jul-11 18:29N 38°02' W 122°21'1327.6
2018-Jul-11 18:00N 37°49' W 122°25'1 2.2
2018-Jul-11 17:27N 37°48' W 122°24'1324.1
2018-Jul-11 16:54N 38°01' W 122°23'716.9
2018-Jul-11 16:28N 38°06' W 122°16'1 2.6
2018-Jul-11 15:56N 38°05' W 122°15'1330.2
2018-Jul-11 15:31N 37°55' W 122°25'714.8
2018-Jul-11 15:00N 37°48' W 122°24'1222.4
2018-Jul-11 14:29N 37°59' W 122°25'10 0.8
2018-Jul-11 02:11N 38°06' W 122°16'0 1.4
2018-Jul-11 01:55N 38°06' W 122°16'716.3
2018-Jul-11 01:30N 38°01' W 122°22'1326.9
2018-Jul-11 01:00N 37°48' W 122°24'3 5.8
2018-Jul-11 00:31N 37°51' W 122°25'1529.6
2018-Jul-11 00:00N 38°04' W 122°16'2 3.7
2018-Jul-10 23:25N 38°06' W 122°16'614.3
2018-Jul-10 23:00N 38°02' W 122°21'1427.8
2018-Jul-10 22:30N 37°48' W 122°24'1 2.5
2018-Jul-10 22:00N 37°49' W 122°25'1122.8
2018-Jul-10 21:30N 37°60' W 122°24'915.2
2018-Jul-10 20:54N 38°06' W 122°16'0 0.1
2018-Jul-10 19:06N 38°06' W 122°16'0 0.4
2018-Jul-10 18:49N 38°06' W 122°16'413.8
2018-Jul-10 18:30N 38°03' W 122°19'1529.3
2018-Jul-10 18:00N 37°49' W 122°25'1 2.4
2018-Jul-10 17:30N 37°48' W 122°24'1224.1
2018-Jul-10 17:00N 37°60' W 122°24'918.3
2018-Jul-10 16:30N 38°06' W 122°16'0 0.8
2018-Jul-10 16:00N 38°06' W 122°16'1326.4
2018-Jul-10 15:31N 37°55' W 122°26'815.2
2018-Jul-10 15:00N 37°48' W 122°24'1122.7
2018-Jul-10 14:30N 37°59' W 122°25'1020.1
2018-Jul-10 14:00N 38°06' W 122°16'0 0.0
2018-Jul-10 02:08N 38°06' W 122°16'0 1.3
2018-Jul-10 01:51N 38°06' W 122°16'617.0
2018-Jul-10 01:30N 38°02' W 122°21'1427.9
2018-Jul-10 01:00N 37°48' W 122°24'3 6.1
2018-Jul-10 00:31N 37°51' W 122°25'1428.4
2018-Jul-10 00:01N 38°04' W 122°17'3 4.8
2018-Jul-09 23:28N 38°06' W 122°16'816.8
2018-Jul-09 23:00N 38°01' W 122°23'1325.9
2018-Jul-09 22:30N 37°48' W 122°24'1 2.4
2018-Jul-09 22:00N 37°49' W 122°25'1120.6
2018-Jul-09 21:30N 37°59' W 122°25'1020.9
2018-Jul-09 21:00N 38°06' W 122°16'0 0.0
2018-Jul-09 19:04N 38°06' W 122°16'0 0.2
2018-Jul-09 18:50N 38°06' W 122°16'616.5
2018-Jul-09 18:30N 38°02' W 122°21'1427.4
2018-Jul-09 18:00N 37°49' W 122°25'1 2.4
2018-Jul-09 17:29N 37°48' W 122°24'1326.5
2018-Jul-09 17:01N 38°00' W 122°24'816.7
2018-Jul-09 16:31N 38°06' W 122°16'1 1.3
2018-Jul-09 15:59N 38°05' W 122°15'1327.3
2018-Jul-09 15:30N 37°55' W 122°25'714.6
2018-Jul-09 15:00N 37°48' W 122°24'1224.0
2018-Jul-09 14:31N 37°60' W 122°25'918.7
2018-Jul-09 14:00N 38°06' W 122°16'0 0.0
2018-Jul-09 05:14N 38°06' W 122°16'0 1.5
2018-Jul-09 04:58N 38°06' W 122°16'817.3
2018-Jul-09 04:30N 38°01' W 122°23'1326.0
2018-Jul-09 04:01N 37°48' W 122°24'2 3.3
2018-Jul-09 03:31N 37°49' W 122°25'1325.7
2018-Jul-09 03:00N 38°02' W 122°22'612.7
2018-Jul-09 02:30N 38°06' W 122°16'0 0.0
2018-Jul-09 02:00N 38°06' W 122°16'0 0.3
2018-Jul-09 01:29N 38°06' W 122°16'918.5
2018-Jul-09 01:01N 38°00' W 122°24'1224.4
2018-Jul-09 00:30N 37°48' W 122°24'1 2.4
2018-Jul-09 00:01N 37°49' W 122°25'1020.3
2018-Jul-08 23:30N 37°59' W 122°26'1121.7
2018-Jul-08 23:00N 38°06' W 122°16'0 0.2
2018-Jul-08 21:08N 38°06' W 122°16'0 1.8
2018-Jul-08 20:59N 38°06' W 122°16'1 2.9
2018-Jul-08 20:30N 38°05' W 122°15'1428.6
2018-Jul-08 20:00N 37°53' W 122°25'510.9
2018-Jul-08 19:30N 37°48' W 122°24'1326.3
2018-Jul-08 19:00N 38°01' W 122°23'814.9
2018-Jul-08 18:30N 38°06' W 122°16'1 1.4
2018-Jul-08 17:47N 38°05' W 122°15'724.4
2018-Jul-08 17:30N 38°01' W 122°22'1327.0
2018-Jul-08 17:00N 37°48' W 122°24'1 2.4
2018-Jul-08 16:30N 37°49' W 122°25'1223.1
2018-Jul-08 16:00N 38°00' W 122°25'912.2
2018-Jul-08 15:16N 38°06' W 122°16'0 0.0
2018-Jul-08 05:17N 38°06' W 122°16'0 1.4
2018-Jul-08 05:00N 38°06' W 122°16'1019.7
2018-Jul-08 04:30N 37°59' W 122°25'1223.3
2018-Jul-08 04:00N 37°48' W 122°24'2 3.4
2018-Jul-08 03:30N 37°49' W 122°25'1224.3
2018-Jul-08 03:00N 38°01' W 122°22'711.3
2018-Jul-08 02:22N 38°06' W 122°16'0 0.0
2018-Jul-08 01:58N 38°06' W 122°16'0 0.0
2018-Jul-08 01:28N 38°06' W 122°16'918.6
2018-Jul-08 01:00N 38°00' W 122°24'1225.3
2018-Jul-08 00:30N 37°48' W 122°24'1 2.2
2018-Jul-07 23:58N 37°49' W 122°25'1122.6
2018-Jul-07 23:30N 37°59' W 122°25'1020.2
2018-Jul-07 22:59N 38°06' W 122°16'0 0.6
2018-Jul-07 22:30N 38°06' W 122°16'0 0.1
2018-Jul-07 20:59N 38°06' W 122°16'2 3.6
2018-Jul-07 20:30N 38°05' W 122°15'1427.9
2018-Jul-07 20:00N 37°53' W 122°25'6 9.4
2018-Jul-07 19:25N 37°48' W 122°24'1023.4
2018-Jul-07 18:59N 37°58' W 122°27'1224.2
2018-Jul-07 18:30N 38°06' W 122°16'0 0.8
2018-Jul-07 17:59N 38°06' W 122°16'612.1
2018-Jul-07 17:30N 38°02' W 122°21'1424.9
2018-Jul-07 16:56N 37°48' W 122°24'1 2.8
2018-Jul-07 16:30N 37°49' W 122°25'1324.9
2018-Jul-07 15:58N 38°02' W 122°22'613.2
2018-Jul-07 15:30N 38°06' W 122°16'0 0.5
2018-Jul-07 14:57N 38°06' W 122°16'0 0.0
2018-Jul-07 14:27N 38°06' W 122°16'0 0.0
2018-Jul-07 13:57N 38°06' W 122°16'0 0.0
2018-Jul-07 13:27N 38°06' W 122°16'0 0.0
2018-Jul-07 12:51N 38°06' W 122°16'0 0.0
2018-Jul-07 12:27N 38°06' W 122°16'0 0.0
2018-Jul-07 11:51N 38°06' W 122°16'0 0.0
2018-Jul-07 11:21N 38°06' W 122°16'0 0.0
2018-Jul-07 10:57N 38°06' W 122°16'0 0.0
2018-Jul-07 08:39N 38°06' W 122°16'0 0.0
2018-Jul-07 08:15N 38°06' W 122°16'0 0.0
2018-Jul-07 07:51N 38°06' W 122°16'0 0.0
2018-Jul-07 06:39N 38°06' W 122°16'0 0.0
2018-Jul-07 06:21N 38°06' W 122°16'0 0.0
2018-Jul-07 05:57N 38°06' W 122°16'0 0.0
2018-Jul-07 05:27N 38°06' W 122°16'0 0.0
2018-Jul-07 04:57N 38°06' W 122°16'0 0.0
2018-Jul-07 04:27N 38°06' W 122°16'0 0.0
2018-Jul-07 03:57N 38°06' W 122°16'0 0.0
2018-Jul-07 03:27N 38°06' W 122°16'0 0.0
2018-Jul-07 02:57N 38°06' W 122°16'0 0.0
2018-Jul-07 02:27N 38°06' W 122°16'0 0.6
2018-Jul-07 01:58N 38°06' W 122°16'612.4
2018-Jul-07 01:31N 38°02' W 122°20'1427.4
2018-Jul-07 01:00N 37°48' W 122°24'510.8
2018-Jul-07 00:30N 37°53' W 122°26'1429.0
2018-Jul-07 00:00N 38°04' W 122°15'2 3.4
2018-Jul-06 23:30N 38°06' W 122°16'612.6
2018-Jul-06 23:00N 38°01' W 122°21'1427.4
2018-Jul-06 22:31N 37°48' W 122°24'1 2.4
2018-Jul-06 22:00N 37°49' W 122°25'1224.9
2018-Jul-06 21:30N 38°01' W 122°23'815.1
2018-Jul-06 21:00N 38°06' W 122°16'0 0.2
2018-Jul-06 19:13N 38°06' W 122°16'0 1.2
2018-Jul-06 18:53N 38°06' W 122°16'615.6
2018-Jul-06 18:30N 38°02' W 122°21'1326.7
2018-Jul-06 18:01N 37°49' W 122°25'1 2.4
2018-Jul-06 17:30N 37°48' W 122°24'1121.4
2018-Jul-06 17:00N 37°59' W 122°26'1121.8
2018-Jul-06 16:30N 38°06' W 122°16'1 1.9
2018-Jul-06 15:59N 38°05' W 122°15'1326.9
2018-Jul-06 15:30N 37°55' W 122°26'815.0
2018-Jul-06 15:00N 37°48' W 122°24'1223.6
2018-Jul-06 14:30N 37°60' W 122°25'918.9
2018-Jul-06 14:00N 38°06' W 122°16'0 0.0
2018-Jul-06 06:36N 38°06' W 122°16'0 2.8
2018-Jul-06 06:30N 38°06' W 122°16'2 3.7
2018-Jul-06 06:00N 38°04' W 122°15'1428.1
2018-Jul-06 05:31N 37°53' W 122°25'612.3
2018-Jul-06 05:00N 37°47' W 122°23'917.9
2018-Jul-06 04:30N 37°55' W 122°27'1427.1
2018-Jul-06 04:00N 38°06' W 122°15'1 1.3
2018-Jul-06 03:27N 38°06' W 122°16'1 2.3
2018-Jul-06 03:01N 38°05' W 122°15'1427.1
2018-Jul-06 02:31N 37°54' W 122°25'611.7
2018-Jul-06 02:01N 37°49' W 122°24'4 7.1
2018-Jul-06 01:31N 37°52' W 122°25'1428.1
2018-Jul-06 01:01N 38°04' W 122°16'2 3.5
2018-Jul-06 00:25N 38°06' W 122°16'614.5
2018-Jul-06 00:00N 38°02' W 122°21'1428.2
2018-Jul-05 23:30N 37°48' W 122°24'1 2.5
2018-Jul-05 23:00N 37°49' W 122°23'1428.3
2018-Jul-05 22:30N 38°03' W 122°19'4 7.8
2018-Jul-05 22:00N 38°06' W 122°16'  

Dump ship's entire track history